sensor_id;sensor_type;location;lat;lon;timestamp;temperature;humidity
51982;DHT22;37998;53.416;6.730;2024-02-14T00:02:21;6.80;99.90
51982;DHT22;37998;53.416;6.730;2024-02-14T00:04:47;6.80;99.90
51982;DHT22;37998;53.416;6.730;2024-02-14T00:07:13;6.80;99.90
51982;DHT22;37998;53.416;6.730;2024-02-14T00:09:40;6.80;99.90
51982;DHT22;37998;53.416;6.730;2024-02-14T00:12:06;6.80;99.90
51982;DHT22;37998;53.416;6.730;2024-02-14T00:14:32;6.80;99.90
51982;DHT22;37998;53.416;6.730;2024-02-14T00:16:58;6.80;99.90
51982;DHT22;37998;53.416;6.730;2024-02-14T00:19:25;6.90;99.90
51982;DHT22;37998;53.416;6.730;2024-02-14T00:21:51;6.90;99.90
51982;DHT22;37998;53.416;6.730;2024-02-14T00:24:16;6.90;99.90
51982;DHT22;37998;53.416;6.730;2024-02-14T00:26:45;6.90;99.90
51982;DHT22;37998;53.416;6.730;2024-02-14T00:29:11;6.90;99.90
51982;DHT22;37998;53.416;6.730;2024-02-14T00:31:37;6.90;99.90
51982;DHT22;37998;53.416;6.730;2024-02-14T00:34:13;7.00;99.90
51982;DHT22;37998;53.416;6.730;2024-02-14T00:36:39;7.00;99.90
51982;DHT22;37998;53.416;6.730;2024-02-14T00:39:05;6.90;99.90
51982;DHT22;37998;53.416;6.730;2024-02-14T00:41:34;7.00;99.90
51982;DHT22;37998;53.416;6.730;2024-02-14T00:44:01;7.00;99.90
51982;DHT22;37998;53.416;6.730;2024-02-14T00:46:29;7.00;99.90
51982;DHT22;37998;53.416;6.730;2024-02-14T00:48:56;7.00;99.90
51982;DHT22;37998;53.416;6.730;2024-02-14T00:51:22;7.20;99.90
51982;DHT22;37998;53.416;6.730;2024-02-14T00:53:48;7.00;99.90
51982;DHT22;37998;53.416;6.730;2024-02-14T00:56:14;7.00;99.90
51982;DHT22;37998;53.416;6.730;2024-02-14T00:58:39;7.10;99.90
51982;DHT22;37998;53.416;6.730;2024-02-14T01:01:05;7.00;99.90
51982;DHT22;37998;53.416;6.730;2024-02-14T01:03:31;7.00;99.90
51982;DHT22;37998;53.416;6.730;2024-02-14T01:05:57;7.00;99.90
51982;DHT22;37998;53.416;6.730;2024-02-14T01:08:23;7.00;99.90
51982;DHT22;37998;53.416;6.730;2024-02-14T01:10:49;7.10;99.90
51982;DHT22;37998;53.416;6.730;2024-02-14T01:13:18;7.00;99.90
51982;DHT22;37998;53.416;6.730;2024-02-14T01:15:44;7.00;99.90
51982;DHT22;37998;53.416;6.730;2024-02-14T01:18:10;7.10;99.90
51982;DHT22;37998;53.416;6.730;2024-02-14T01:20:36;7.00;99.90
51982;DHT22;37998;53.416;6.730;2024-02-14T01:23:03;7.00;99.90
51982;DHT22;37998;53.416;6.730;2024-02-14T01:25:31;7.00;99.90
51982;DHT22;37998;53.416;6.730;2024-02-14T01:27:59;7.00;99.90
51982;DHT22;37998;53.416;6.730;2024-02-14T01:30:25;7.00;99.90
51982;DHT22;37998;53.416;6.730;2024-02-14T01:32:52;7.00;99.90
51982;DHT22;37998;53.416;6.730;2024-02-14T01:35:18;7.00;99.90
51982;DHT22;37998;53.416;6.730;2024-02-14T01:37:45;7.00;99.90
51982;DHT22;37998;53.416;6.730;2024-02-14T01:40:12;7.10;99.90
51982;DHT22;37998;53.416;6.730;2024-02-14T01:42:50;7.00;99.90
51982;DHT22;37998;53.416;6.730;2024-02-14T01:45:18;7.10;99.90
51982;DHT22;37998;53.416;6.730;2024-02-14T01:47:58;7.00;99.90
51982;DHT22;37998;53.416;6.730;2024-02-14T01:50:23;7.00;99.90
51982;DHT22;37998;53.416;6.730;2024-02-14T01:52:57;7.10;99.90
51982;DHT22;37998;53.416;6.730;2024-02-14T01:55:25;7.10;99.90
51982;DHT22;37998;53.416;6.730;2024-02-14T01:57:55;7.10;99.90
51982;DHT22;37998;53.416;6.730;2024-02-14T02:00:21;7.10;99.90
51982;DHT22;37998;53.416;6.730;2024-02-14T02:02:47;7.10;99.90
51982;DHT22;37998;53.416;6.730;2024-02-14T02:05:18;7.10;99.90
51982;DHT22;37998;53.416;6.730;2024-02-14T02:07:44;7.10;99.90
51982;DHT22;37998;53.416;6.730;2024-02-14T02:10:14;7.10;99.90
51982;DHT22;37998;53.416;6.730;2024-02-14T02:12:45;7.10;99.90
51982;DHT22;37998;53.416;6.730;2024-02-14T02:15:31;7.10;99.90
51982;DHT22;37998;53.416;6.730;2024-02-14T02:18:17;7.10;99.90
51982;DHT22;37998;53.416;6.730;2024-02-14T02:21:03;7.10;99.90
51982;DHT22;37998;53.416;6.730;2024-02-14T02:23:35;7.10;99.90
51982;DHT22;37998;53.416;6.730;2024-02-14T02:26:02;7.10;99.90
51982;DHT22;37998;53.416;6.730;2024-02-14T02:28:48;7.10;99.90
51982;DHT22;37998;53.416;6.730;2024-02-14T02:31:13;7.10;99.90
51982;DHT22;37998;53.416;6.730;2024-02-14T02:33:43;7.10;99.90
51982;DHT22;37998;53.416;6.730;2024-02-14T02:36:08;7.10;99.90
51982;DHT22;37998;53.416;6.730;2024-02-14T02:38:56;7.20;99.90
51982;DHT22;37998;53.416;6.730;2024-02-14T02:41:43;7.20;99.90
51982;DHT22;37998;53.416;6.730;2024-02-14T02:44:31;7.20;99.90
51982;DHT22;37998;53.416;6.730;2024-02-14T02:47:16;7.20;99.90
51982;DHT22;37998;53.416;6.730;2024-02-14T02:50:03;7.20;99.90
51982;DHT22;37998;53.416;6.730;2024-02-14T02:52:49;7.30;99.90
51982;DHT22;37998;53.416;6.730;2024-02-14T02:55:35;7.30;99.90
51982;DHT22;37998;53.416;6.730;2024-02-14T02:58:04;7.30;99.90
51982;DHT22;37998;53.416;6.730;2024-02-14T03:00:31;7.30;99.90
51982;DHT22;37998;53.416;6.730;2024-02-14T03:03:08;7.30;99.90
51982;DHT22;37998;53.416;6.730;2024-02-14T03:05:49;7.30;99.90
51982;DHT22;37998;53.416;6.730;2024-02-14T03:08:25;7.40;99.90
51982;DHT22;37998;53.416;6.730;2024-02-14T03:11:11;7.30;99.90
51982;DHT22;37998;53.416;6.730;2024-02-14T03:13:57;7.40;99.90
51982;DHT22;37998;53.416;6.730;2024-02-14T03:16:43;7.40;99.90
51982;DHT22;37998;53.416;6.730;2024-02-14T03:19:09;7.40;99.90
51982;DHT22;37998;53.416;6.730;2024-02-14T03:21:35;7.40;99.90
51982;DHT22;37998;53.416;6.730;2024-02-14T03:24:02;7.40;99.90
51982;DHT22;37998;53.416;6.730;2024-02-14T03:26:33;7.40;99.90
51982;DHT22;37998;53.416;6.730;2024-02-14T03:29:03;7.40;99.90
51982;DHT22;37998;53.416;6.730;2024-02-14T03:31:32;7.50;99.90
51982;DHT22;37998;53.416;6.730;2024-02-14T03:33:58;7.40;99.90
51982;DHT22;37998;53.416;6.730;2024-02-14T03:36:24;7.50;99.90
51982;DHT22;37998;53.416;6.730;2024-02-14T03:38:54;7.50;99.90
51982;DHT22;37998;53.416;6.730;2024-02-14T03:41:19;7.60;99.90
51982;DHT22;37998;53.416;6.730;2024-02-14T03:43:45;7.50;99.90
51982;DHT22;37998;53.416;6.730;2024-02-14T03:46:11;7.60;99.90
51982;DHT22;37998;53.416;6.730;2024-02-14T03:48:38;7.50;99.90
51982;DHT22;37998;53.416;6.730;2024-02-14T03:51:06;7.60;99.90
51982;DHT22;37998;53.416;6.730;2024-02-14T03:53:32;7.60;99.90
51982;DHT22;37998;53.416;6.730;2024-02-14T03:55:59;7.60;99.90
51982;DHT22;37998;53.416;6.730;2024-02-14T03:58:24;7.60;99.90
51982;DHT22;37998;53.416;6.730;2024-02-14T04:00:50;7.60;99.90
51982;DHT22;37998;53.416;6.730;2024-02-14T04:03:17;7.60;99.90
51982;DHT22;37998;53.416;6.730;2024-02-14T04:05:44;7.60;99.90
51982;DHT22;37998;53.416;6.730;2024-02-14T04:08:11;7.60;99.90
51982;DHT22;37998;53.416;6.730;2024-02-14T04:10:37;7.70;99.90
51982;DHT22;37998;53.416;6.730;2024-02-14T04:13:04;7.70;99.90
51982;DHT22;37998;53.416;6.730;2024-02-14T04:15:33;7.70;99.90
51982;DHT22;37998;53.416;6.730;2024-02-14T04:18:05;7.70;99.90
51982;DHT22;37998;53.416;6.730;2024-02-14T04:20:32;7.70;99.90
51982;DHT22;37998;53.416;6.730;2024-02-14T04:22:57;7.70;99.90
51982;DHT22;37998;53.416;6.730;2024-02-14T04:25:24;7.80;99.90
51982;DHT22;37998;53.416;6.730;2024-02-14T04:27:50;7.80;99.90
51982;DHT22;37998;53.416;6.730;2024-02-14T04:30:16;7.80;99.90
51982;DHT22;37998;53.416;6.730;2024-02-14T04:33:02;7.90;99.90
51982;DHT22;37998;53.416;6.730;2024-02-14T04:35:28;7.90;99.90
51982;DHT22;37998;53.416;6.730;2024-02-14T04:37:54;7.90;99.90
51982;DHT22;37998;53.416;6.730;2024-02-14T04:40:21;8.10;99.90
51982;DHT22;37998;53.416;6.730;2024-02-14T04:42:46;8.00;99.90
51982;DHT22;37998;53.416;6.730;2024-02-14T04:45:12;8.00;99.90
51982;DHT22;37998;53.416;6.730;2024-02-14T04:47:52;8.00;99.90
51982;DHT22;37998;53.416;6.730;2024-02-14T04:50:18;8.10;99.90
51982;DHT22;37998;53.416;6.730;2024-02-14T04:52:44;8.10;99.90
51982;DHT22;37998;53.416;6.730;2024-02-14T04:55:10;8.10;99.90
51982;DHT22;37998;53.416;6.730;2024-02-14T04:57:36;8.20;99.90
51982;DHT22;37998;53.416;6.730;2024-02-14T05:00:04;8.30;99.90
51982;DHT22;37998;53.416;6.730;2024-02-14T05:02:33;8.30;99.90
51982;DHT22;37998;53.416;6.730;2024-02-14T05:04:59;8.30;99.90
51982;DHT22;37998;53.416;6.730;2024-02-14T05:07:25;8.30;99.90
51982;DHT22;37998;53.416;6.730;2024-02-14T05:09:51;9.20;99.90
51982;DHT22;37998;53.416;6.730;2024-02-14T05:12:18;8.40;99.90
51982;DHT22;37998;53.416;6.730;2024-02-14T05:14:45;8.40;99.90
51982;DHT22;37998;53.416;6.730;2024-02-14T05:17:11;8.50;99.90
51982;DHT22;37998;53.416;6.730;2024-02-14T05:19:37;8.50;99.90
51982;DHT22;37998;53.416;6.730;2024-02-14T05:22:03;8.50;99.90
51982;DHT22;37998;53.416;6.730;2024-02-14T05:24:29;8.60;99.90
51982;DHT22;37998;53.416;6.730;2024-02-14T05:26:56;8.60;99.90
51982;DHT22;37998;53.416;6.730;2024-02-14T05:29:22;8.60;99.90
51982;DHT22;37998;53.416;6.730;2024-02-14T05:31:48;8.70;99.90
51982;DHT22;37998;53.416;6.730;2024-02-14T05:34:14;8.70;99.90
51982;DHT22;37998;53.416;6.730;2024-02-14T05:36:40;8.80;99.90
51982;DHT22;37998;53.416;6.730;2024-02-14T05:39:08;8.70;99.90
51982;DHT22;37998;53.416;6.730;2024-02-14T05:41:34;8.80;99.90
51982;DHT22;37998;53.416;6.730;2024-02-14T05:44:01;8.80;99.90
51982;DHT22;37998;53.416;6.730;2024-02-14T05:46:27;8.80;99.90
51982;DHT22;37998;53.416;6.730;2024-02-14T05:48:53;8.80;99.90
51982;DHT22;37998;53.416;6.730;2024-02-14T05:51:20;8.80;99.90
51982;DHT22;37998;53.416;6.730;2024-02-14T05:53:46;8.80;99.90
51982;DHT22;37998;53.416;6.730;2024-02-14T05:56:12;8.80;99.90
51982;DHT22;37998;53.416;6.730;2024-02-14T05:58:37;8.80;99.90
51982;DHT22;37998;53.416;6.730;2024-02-14T06:01:03;8.80;99.90
51982;DHT22;37998;53.416;6.730;2024-02-14T06:03:29;8.80;99.90
51982;DHT22;37998;53.416;6.730;2024-02-14T06:05:55;8.90;99.90
51982;DHT22;37998;53.416;6.730;2024-02-14T06:08:21;8.90;99.90
51982;DHT22;37998;53.416;6.730;2024-02-14T06:10:49;8.90;99.90
51982;DHT22;37998;53.416;6.730;2024-02-14T06:13:15;8.90;99.90
51982;DHT22;37998;53.416;6.730;2024-02-14T06:15:41;9.00;99.90
51982;DHT22;37998;53.416;6.730;2024-02-14T06:18:07;9.00;99.90
51982;DHT22;37998;53.416;6.730;2024-02-14T06:20:33;9.00;99.90
51982;DHT22;37998;53.416;6.730;2024-02-14T06:22:59;9.10;99.90
51982;DHT22;37998;53.416;6.730;2024-02-14T06:25:25;9.00;99.90
51982;DHT22;37998;53.416;6.730;2024-02-14T06:27:58;9.10;99.90
51982;DHT22;37998;53.416;6.730;2024-02-14T06:30:24;9.10;99.90
51982;DHT22;37998;53.416;6.730;2024-02-14T06:32:50;9.10;99.90
51982;DHT22;37998;53.416;6.730;2024-02-14T06:35:16;9.20;99.90
51982;DHT22;37998;53.416;6.730;2024-02-14T06:37:45;9.10;99.90
51982;DHT22;37998;53.416;6.730;2024-02-14T06:40:11;9.20;99.90
51982;DHT22;37998;53.416;6.730;2024-02-14T06:42:37;9.20;99.90
51982;DHT22;37998;53.416;6.730;2024-02-14T06:45:04;9.20;99.90
51982;DHT22;37998;53.416;6.730;2024-02-14T06:47:33;8.50;99.90
51982;DHT22;37998;53.416;6.730;2024-02-14T06:49:59;9.20;99.90
51982;DHT22;37998;53.416;6.730;2024-02-14T06:52:24;9.20;99.90
51982;DHT22;37998;53.416;6.730;2024-02-14T06:54:50;8.10;99.90
51982;DHT22;37998;53.416;6.730;2024-02-14T06:57:16;9.20;99.90
51982;DHT22;37998;53.416;6.730;2024-02-14T06:59:43;9.30;99.90
51982;DHT22;37998;53.416;6.730;2024-02-14T07:02:10;9.30;99.90
51982;DHT22;37998;53.416;6.730;2024-02-14T07:04:36;9.30;99.90
51982;DHT22;37998;53.416;6.730;2024-02-14T07:07:02;9.30;99.90
51982;DHT22;37998;53.416;6.730;2024-02-14T07:09:28;9.30;99.90
51982;DHT22;37998;53.416;6.730;2024-02-14T07:11:54;9.30;99.90
51982;DHT22;37998;53.416;6.730;2024-02-14T07:14:23;9.40;99.90
51982;DHT22;37998;53.416;6.730;2024-02-14T07:16:49;9.30;99.90
51982;DHT22;37998;53.416;6.730;2024-02-14T07:19:14;9.30;99.90
51982;DHT22;37998;53.416;6.730;2024-02-14T07:21:40;9.40;99.90
51982;DHT22;37998;53.416;6.730;2024-02-14T07:24:06;9.40;99.90
51982;DHT22;37998;53.416;6.730;2024-02-14T07:26:32;9.40;99.90
51982;DHT22;37998;53.416;6.730;2024-02-14T07:28:58;9.40;99.90
51982;DHT22;37998;53.416;6.730;2024-02-14T07:31:28;9.30;99.90
51982;DHT22;37998;53.416;6.730;2024-02-14T07:33:55;9.40;99.90
51982;DHT22;37998;53.416;6.730;2024-02-14T07:36:21;9.40;99.90
51982;DHT22;37998;53.416;6.730;2024-02-14T07:38:48;9.40;99.90
51982;DHT22;37998;53.416;6.730;2024-02-14T07:41:14;9.40;99.90
51982;DHT22;37998;53.416;6.730;2024-02-14T07:43:47;9.40;99.90
51982;DHT22;37998;53.416;6.730;2024-02-14T07:46:19;9.50;99.90
51982;DHT22;37998;53.416;6.730;2024-02-14T07:48:46;9.50;99.90
51982;DHT22;37998;53.416;6.730;2024-02-14T07:51:12;9.40;99.90
51982;DHT22;37998;53.416;6.730;2024-02-14T07:53:38;9.50;99.90
51982;DHT22;37998;53.416;6.730;2024-02-14T07:56:04;9.50;99.90
51982;DHT22;37998;53.416;6.730;2024-02-14T07:58:30;9.60;99.90
51982;DHT22;37998;53.416;6.730;2024-02-14T08:00:56;9.60;99.90
51982;DHT22;37998;53.416;6.730;2024-02-14T08:03:22;9.60;99.90
51982;DHT22;37998;53.416;6.730;2024-02-14T08:05:48;9.70;99.90
51982;DHT22;37998;53.416;6.730;2024-02-14T08:08:14;9.70;99.90
51982;DHT22;37998;53.416;6.730;2024-02-14T08:10:40;9.60;99.90
51982;DHT22;37998;53.416;6.730;2024-02-14T08:13:06;9.60;99.90
51982;DHT22;37998;53.416;6.730;2024-02-14T08:15:32;9.60;99.90
51982;DHT22;37998;53.416;6.730;2024-02-14T08:17:58;9.70;99.90
51982;DHT22;37998;53.416;6.730;2024-02-14T08:20:25;9.60;99.90
51982;DHT22;37998;53.416;6.730;2024-02-14T08:23:01;9.60;99.90
51982;DHT22;37998;53.416;6.730;2024-02-14T08:25:27;9.70;99.90
51982;DHT22;37998;53.416;6.730;2024-02-14T08:27:53;9.70;99.90
51982;DHT22;37998;53.416;6.730;2024-02-14T08:30:19;9.70;99.90
51982;DHT22;37998;53.416;6.730;2024-02-14T08:32:45;9.70;99.90
51982;DHT22;37998;53.416;6.730;2024-02-14T08:35:11;9.70;99.90
51982;DHT22;37998;53.416;6.730;2024-02-14T08:37:39;9.70;99.90
51982;DHT22;37998;53.416;6.730;2024-02-14T08:40:07;9.70;99.90
51982;DHT22;37998;53.416;6.730;2024-02-14T08:42:36;9.70;99.90
51982;DHT22;37998;53.416;6.730;2024-02-14T08:45:03;9.70;99.90
51982;DHT22;37998;53.416;6.730;2024-02-14T08:47:29;9.70;99.90
51982;DHT22;37998;53.416;6.730;2024-02-14T08:49:55;9.80;99.90
51982;DHT22;37998;53.416;6.730;2024-02-14T08:52:21;9.80;99.90
51982;DHT22;37998;53.416;6.730;2024-02-14T08:54:47;9.90;99.90
51982;DHT22;37998;53.416;6.730;2024-02-14T08:57:13;9.90;99.90
51982;DHT22;37998;53.416;6.730;2024-02-14T08:59:39;9.90;99.90
51982;DHT22;37998;53.416;6.730;2024-02-14T09:02:05;9.90;99.90
51982;DHT22;37998;53.416;6.730;2024-02-14T09:04:31;10.00;99.90
51982;DHT22;37998;53.416;6.730;2024-02-14T09:06:57;10.00;99.90
51982;DHT22;37998;53.416;6.730;2024-02-14T09:09:23;10.00;99.90
51982;DHT22;37998;53.416;6.730;2024-02-14T09:11:49;10.00;99.90
51982;DHT22;37998;53.416;6.730;2024-02-14T09:14:16;10.00;99.90
51982;DHT22;37998;53.416;6.730;2024-02-14T09:16:42;10.10;99.90
51982;DHT22;37998;53.416;6.730;2024-02-14T09:19:08;10.10;99.90
51982;DHT22;37998;53.416;6.730;2024-02-14T09:21:35;10.10;99.90
51982;DHT22;37998;53.416;6.730;2024-02-14T09:24:02;10.10;99.90
51982;DHT22;37998;53.416;6.730;2024-02-14T09:26:29;10.10;99.90
51982;DHT22;37998;53.416;6.730;2024-02-14T09:28:55;10.20;99.90
51982;DHT22;37998;53.416;6.730;2024-02-14T09:31:21;10.20;99.90
51982;DHT22;37998;53.416;6.730;2024-02-14T09:33:48;10.20;99.90
51982;DHT22;37998;53.416;6.730;2024-02-14T09:36:15;10.20;99.90
51982;DHT22;37998;53.416;6.730;2024-02-14T09:38:41;10.20;99.90
51982;DHT22;37998;53.416;6.730;2024-02-14T09:43:56;10.30;99.90
51982;DHT22;37998;53.416;6.730;2024-02-14T09:46:25;10.20;99.90
51982;DHT22;37998;53.416;6.730;2024-02-14T09:48:52;10.30;99.90
51982;DHT22;37998;53.416;6.730;2024-02-14T09:51:19;10.30;99.90
51982;DHT22;37998;53.416;6.730;2024-02-14T09:53:45;10.30;99.90
51982;DHT22;37998;53.416;6.730;2024-02-14T09:56:12;10.30;99.90
51982;DHT22;37998;53.416;6.730;2024-02-14T09:58:40;10.30;99.90
51982;DHT22;37998;53.416;6.730;2024-02-14T10:01:07;10.30;99.90
51982;DHT22;37998;53.416;6.730;2024-02-14T10:03:33;10.30;99.90
51982;DHT22;37998;53.416;6.730;2024-02-14T10:06:01;10.30;99.90
51982;DHT22;37998;53.416;6.730;2024-02-14T10:08:27;10.40;99.90
51982;DHT22;37998;53.416;6.730;2024-02-14T10:10:57;10.30;99.90
51982;DHT22;37998;53.416;6.730;2024-02-14T10:13:25;10.40;99.90
51982;DHT22;37998;53.416;6.730;2024-02-14T10:15:51;10.40;99.90
51982;DHT22;37998;53.416;6.730;2024-02-14T10:18:17;10.40;99.90
51982;DHT22;37998;53.416;6.730;2024-02-14T10:20:57;10.40;99.90
51982;DHT22;37998;53.416;6.730;2024-02-14T10:23:23;10.40;99.90
51982;DHT22;37998;53.416;6.730;2024-02-14T10:25:58;10.50;99.90
51982;DHT22;37998;53.416;6.730;2024-02-14T10:28:24;10.50;99.90
51982;DHT22;37998;53.416;6.730;2024-02-14T10:30:50;10.50;99.90
51982;DHT22;37998;53.416;6.730;2024-02-14T10:33:16;10.60;99.90
51982;DHT22;37998;53.416;6.730;2024-02-14T10:35:43;10.50;99.90
51982;DHT22;37998;53.416;6.730;2024-02-14T10:38:11;10.50;99.90
51982;DHT22;37998;53.416;6.730;2024-02-14T10:40:37;10.60;99.90
51982;DHT22;37998;53.416;6.730;2024-02-14T10:43:08;10.60;99.90
51982;DHT22;37998;53.416;6.730;2024-02-14T10:45:37;10.60;99.90
51982;DHT22;37998;53.416;6.730;2024-02-14T10:48:11;10.60;99.90
51982;DHT22;37998;53.416;6.730;2024-02-14T10:50:40;10.60;99.90
51982;DHT22;37998;53.416;6.730;2024-02-14T10:53:13;10.70;99.90
51982;DHT22;37998;53.416;6.730;2024-02-14T10:55:40;10.80;99.90
51982;DHT22;37998;53.416;6.730;2024-02-14T10:58:08;10.70;99.90
51982;DHT22;37998;53.416;6.730;2024-02-14T11:00:36;10.70;99.90
51982;DHT22;37998;53.416;6.730;2024-02-14T11:03:02;10.80;99.90
51982;DHT22;37998;53.416;6.730;2024-02-14T11:05:28;10.70;99.90
51982;DHT22;37998;53.416;6.730;2024-02-14T11:07:54;10.80;99.90
51982;DHT22;37998;53.416;6.730;2024-02-14T11:10:21;10.80;99.90
51982;DHT22;37998;53.416;6.730;2024-02-14T11:12:48;10.80;99.90
51982;DHT22;37998;53.416;6.730;2024-02-14T11:15:23;10.80;99.90
51982;DHT22;37998;53.416;6.730;2024-02-14T11:18:04;10.80;99.90
51982;DHT22;37998;53.416;6.730;2024-02-14T11:20:33;10.80;99.90
51982;DHT22;37998;53.416;6.730;2024-02-14T11:23:03;10.80;99.90
51982;DHT22;37998;53.416;6.730;2024-02-14T11:25:32;10.80;99.90
51982;DHT22;37998;53.416;6.730;2024-02-14T11:27:58;10.80;99.90
51982;DHT22;37998;53.416;6.730;2024-02-14T11:30:33;10.80;99.90
51982;DHT22;37998;53.416;6.730;2024-02-14T11:33:26;10.90;99.90
51982;DHT22;37998;53.416;6.730;2024-02-14T11:35:54;10.90;99.90
51982;DHT22;37998;53.416;6.730;2024-02-14T11:38:24;10.90;99.90
51982;DHT22;37998;53.416;6.730;2024-02-14T11:40:53;11.00;99.90
51982;DHT22;37998;53.416;6.730;2024-02-14T11:43:20;10.90;99.90
51982;DHT22;37998;53.416;6.730;2024-02-14T11:45:47;10.90;99.90
51982;DHT22;37998;53.416;6.730;2024-02-14T11:48:16;10.90;99.90
51982;DHT22;37998;53.416;6.730;2024-02-14T11:50:44;10.90;99.90
51982;DHT22;37998;53.416;6.730;2024-02-14T11:53:12;10.90;99.90
51982;DHT22;37998;53.416;6.730;2024-02-14T11:55:39;10.90;99.90
51982;DHT22;37998;53.416;6.730;2024-02-14T11:58:17;10.90;99.90
51982;DHT22;37998;53.416;6.730;2024-02-14T12:00:44;10.90;99.90
51982;DHT22;37998;53.416;6.730;2024-02-14T12:03:16;10.90;99.90
51982;DHT22;37998;53.416;6.730;2024-02-14T12:05:42;10.90;99.90
51982;DHT22;37998;53.416;6.730;2024-02-14T12:08:10;10.90;99.90
51982;DHT22;37998;53.416;6.730;2024-02-14T12:10:36;10.90;99.90
51982;DHT22;37998;53.416;6.730;2024-02-14T12:13:12;10.90;99.90
51982;DHT22;37998;53.416;6.730;2024-02-14T12:15:39;10.90;99.90
51982;DHT22;37998;53.416;6.730;2024-02-14T12:18:05;10.90;99.90
51982;DHT22;37998;53.416;6.730;2024-02-14T12:20:31;10.90;99.90
51982;DHT22;37998;53.416;6.730;2024-02-14T12:22:58;10.90;99.90
51982;DHT22;37998;53.416;6.730;2024-02-14T12:25:25;10.90;99.90
51982;DHT22;37998;53.416;6.730;2024-02-14T12:27:52;10.90;99.90
51982;DHT22;37998;53.416;6.730;2024-02-14T12:30:18;11.00;99.90
51982;DHT22;37998;53.416;6.730;2024-02-14T12:32:58;11.00;99.90
51982;DHT22;37998;53.416;6.730;2024-02-14T12:35:25;11.00;99.90
51982;DHT22;37998;53.416;6.730;2024-02-14T12:37:51;11.00;99.90
51982;DHT22;37998;53.416;6.730;2024-02-14T12:40:16;11.00;99.90
51982;DHT22;37998;53.416;6.730;2024-02-14T12:42:45;11.00;99.90
51982;DHT22;37998;53.416;6.730;2024-02-14T12:45:11;11.10;99.90
51982;DHT22;37998;53.416;6.730;2024-02-14T12:47:37;11.10;99.90
51982;DHT22;37998;53.416;6.730;2024-02-14T12:50:04;11.10;99.90
51982;DHT22;37998;53.416;6.730;2024-02-14T12:52:35;11.10;99.90
51982;DHT22;37998;53.416;6.730;2024-02-14T12:55:00;11.20;99.90
51982;DHT22;37998;53.416;6.730;2024-02-14T12:57:26;11.20;99.90
51982;DHT22;37998;53.416;6.730;2024-02-14T12:59:53;11.20;99.90
51982;DHT22;37998;53.416;6.730;2024-02-14T13:02:18;11.30;99.90
51982;DHT22;37998;53.416;6.730;2024-02-14T13:04:44;11.30;99.90
51982;DHT22;37998;53.416;6.730;2024-02-14T13:07:10;11.30;99.90
51982;DHT22;37998;53.416;6.730;2024-02-14T13:09:36;11.30;99.90
51982;DHT22;37998;53.416;6.730;2024-02-14T13:12:04;11.30;99.90
51982;DHT22;37998;53.416;6.730;2024-02-14T13:14:31;11.30;99.90
51982;DHT22;37998;53.416;6.730;2024-02-14T13:16:58;11.30;99.90
51982;DHT22;37998;53.416;6.730;2024-02-14T13:19:24;11.30;99.90
51982;DHT22;37998;53.416;6.730;2024-02-14T13:21:50;11.30;99.90
51982;DHT22;37998;53.416;6.730;2024-02-14T13:24:16;11.40;99.90
51982;DHT22;37998;53.416;6.730;2024-02-14T13:26:42;11.40;99.90
51982;DHT22;37998;53.416;6.730;2024-02-14T13:29:08;11.30;99.90
51982;DHT22;37998;53.416;6.730;2024-02-14T13:31:34;11.40;99.90
51982;DHT22;37998;53.416;6.730;2024-02-14T13:34:00;11.40;99.90
51982;DHT22;37998;53.416;6.730;2024-02-14T13:36:26;11.40;99.90
51982;DHT22;37998;53.416;6.730;2024-02-14T13:38:52;11.40;99.90
51982;DHT22;37998;53.416;6.730;2024-02-14T13:41:18;11.40;99.90
51982;DHT22;37998;53.416;6.730;2024-02-14T13:43:43;11.30;99.90
51982;DHT22;37998;53.416;6.730;2024-02-14T13:46:10;11.30;99.90
51982;DHT22;37998;53.416;6.730;2024-02-14T13:48:36;11.40;99.90
51982;DHT22;37998;53.416;6.730;2024-02-14T13:51:02;11.40;99.90
51982;DHT22;37998;53.416;6.730;2024-02-14T13:53:29;11.40;99.90
51982;DHT22;37998;53.416;6.730;2024-02-14T13:55:55;11.40;99.90
51982;DHT22;37998;53.416;6.730;2024-02-14T13:58:21;11.40;99.90
51982;DHT22;37998;53.416;6.730;2024-02-14T14:00:47;11.40;99.90
51982;DHT22;37998;53.416;6.730;2024-02-14T14:03:13;11.30;99.90
51982;DHT22;37998;53.416;6.730;2024-02-14T14:05:39;11.30;99.90
51982;DHT22;37998;53.416;6.730;2024-02-14T14:08:05;11.40;99.90
51982;DHT22;37998;53.416;6.730;2024-02-14T14:10:31;11.30;99.90
51982;DHT22;37998;53.416;6.730;2024-02-14T14:12:57;11.30;99.90
51982;DHT22;37998;53.416;6.730;2024-02-14T14:15:23;11.30;99.90
51982;DHT22;37998;53.416;6.730;2024-02-14T14:17:49;11.40;99.90
51982;DHT22;37998;53.416;6.730;2024-02-14T14:20:15;11.30;99.90
51982;DHT22;37998;53.416;6.730;2024-02-14T14:22:41;11.30;99.90
51982;DHT22;37998;53.416;6.730;2024-02-14T14:25:07;11.30;99.90
51982;DHT22;37998;53.416;6.730;2024-02-14T14:27:34;11.40;99.90
51982;DHT22;37998;53.416;6.730;2024-02-14T14:30:00;11.40;99.90
51982;DHT22;37998;53.416;6.730;2024-02-14T14:32:25;11.40;99.90
51982;DHT22;37998;53.416;6.730;2024-02-14T14:34:53;11.30;99.90
51982;DHT22;37998;53.416;6.730;2024-02-14T14:37:19;11.40;99.90
51982;DHT22;37998;53.416;6.730;2024-02-14T14:39:45;11.40;99.90
51982;DHT22;37998;53.416;6.730;2024-02-14T14:42:11;11.40;99.90
51982;DHT22;37998;53.416;6.730;2024-02-14T14:44:37;11.40;99.90
51982;DHT22;37998;53.416;6.730;2024-02-14T14:47:04;11.40;99.90
51982;DHT22;37998;53.416;6.730;2024-02-14T14:49:30;11.40;99.90
51982;DHT22;37998;53.416;6.730;2024-02-14T14:51:56;11.40;99.90
51982;DHT22;37998;53.416;6.730;2024-02-14T14:54:23;11.40;99.90
51982;DHT22;37998;53.416;6.730;2024-02-14T14:56:53;11.40;99.90
51982;DHT22;37998;53.416;6.730;2024-02-14T14:59:19;11.30;99.90
51982;DHT22;37998;53.416;6.730;2024-02-14T15:01:45;11.40;99.90
51982;DHT22;37998;53.416;6.730;2024-02-14T15:04:11;11.40;99.90
51982;DHT22;37998;53.416;6.730;2024-02-14T15:06:36;11.40;99.90
51982;DHT22;37998;53.416;6.730;2024-02-14T15:09:02;11.40;99.90
51982;DHT22;37998;53.416;6.730;2024-02-14T15:11:29;11.40;99.90
51982;DHT22;37998;53.416;6.730;2024-02-14T15:13:55;11.40;99.90
51982;DHT22;37998;53.416;6.730;2024-02-14T15:16:20;11.40;99.90
51982;DHT22;37998;53.416;6.730;2024-02-14T15:18:46;11.40;99.90
51982;DHT22;37998;53.416;6.730;2024-02-14T15:21:12;11.40;99.90
51982;DHT22;37998;53.416;6.730;2024-02-14T15:23:38;11.40;99.90
51982;DHT22;37998;53.416;6.730;2024-02-14T15:26:04;11.30;99.90
51982;DHT22;37998;53.416;6.730;2024-02-14T15:28:32;11.40;99.90
51982;DHT22;37998;53.416;6.730;2024-02-14T15:31:06;11.40;99.90
51982;DHT22;37998;53.416;6.730;2024-02-14T15:33:52;11.40;99.90
51982;DHT22;37998;53.416;6.730;2024-02-14T15:36:18;11.30;99.90
51982;DHT22;37998;53.416;6.730;2024-02-14T15:38:44;11.40;99.90
51982;DHT22;37998;53.416;6.730;2024-02-14T15:41:10;11.30;99.90
51982;DHT22;37998;53.416;6.730;2024-02-14T15:43:37;11.40;99.90
51982;DHT22;37998;53.416;6.730;2024-02-14T15:46:03;11.30;99.90
51982;DHT22;37998;53.416;6.730;2024-02-14T15:48:29;11.40;99.90